Lorraine — A8IZ3 — position and weather

sailwx.info

Track history (hours):
 
Tides and Currents Weather Stations Pressure Air Temp Water Temp Dewpoint Dewpoint Depression Visibility Wind Speed Wind Dir Waves Ship Positions

Lorraine

Last reported at 2015-May-23 11:33 UTC. Time now 2015-May-23 11:56 UTC.
Position N 30°55' E 122°57'.

Length 221 m; draft 7.3 m.

Type: Ship. MMSI: 636012905.

Date/timePositionNaut miles runAvg speedWind from/ knotsBaromVisibWave heightAir tempDewpointWater temp
2015-May-23 11:33N 30°55' E 122°57'0 0.1
2015-May-23 10:19N 30°55' E 122°57'0 0.0
2015-May-23 03:22N 30°55' E 122°57'0 0.1
2015-May-23 01:31N 30°55' E 122°57'47 3.8
2015-May-22 13:09N 30°08' E 123°06'1311.6
2015-May-22 12:03N 29°56' E 123°06'811.9
2015-May-22 11:23N 29°48' E 123°02'1011.7
2015-May-22 10:33N 29°40' E 122°56'1412.0
2015-May-22 09:22N 29°27' E 122°50'1012.0
2015-May-22 08:32N 29°17' E 122°45'1512.1
2015-May-22 07:18N 29°04' E 122°38'912.6
2015-May-22 06:33N 28°56' E 122°33'38912.2
2015-May-20 22:32N 22°53' E 119°55'1312.9
2015-May-20 21:33N 22°43' E 120°03'1312.9
2015-May-20 20:33N 22°34' E 120°12'7 5.2
2015-May-20 19:15N 22°33' E 120°20'0 0.0
2015-May-20 17:33N 22°33' E 120°20'0 0.0
2015-May-20 16:29N 22°33' E 120°20'0 0.0
2015-May-20 15:17N 22°33' E 120°20'0 0.0
2015-May-20 14:22N 22°33' E 120°20'0 0.0
2015-May-20 13:21N 22°33' E 120°20'10 7.9
2015-May-20 12:07N 22°26' E 120°12'814.7
2015-May-20 11:33N 22°17' E 120°12'  
2015-May-14 04:20S 07°12' E 112°42'85 6.5
2015-May-13 15:12S 06°23' E 111°32'  
Track history (hours):
 
Tides and Currents Weather Stations Pressure Air Temp Water Temp Dewpoint Dewpoint Depression Visibility Wind Speed Wind Dir Waves Ship Positions

Lorraine

Last reported at 2015-May-23 11:33 UTC. Time now 2015-May-23 11:56 UTC.
Position N 30°55' E 122°57'.

Length 221 m; draft 7.3 m.

Type: Ship. MMSI: 636012905.

Date/timePositionNaut miles runAvg speedWind from/ knotsBaromVisibWave heightAir tempDewpointWater temp
2015-May-23 11:33N 30°55' E 122°57'0 0.1
2015-May-23 10:19N 30°55' E 122°57'0 0.0
2015-May-23 03:22N 30°55' E 122°57'0 0.1
2015-May-23 01:31N 30°55' E 122°57'47 3.8
2015-May-22 13:09N 30°08' E 123°06'1311.6
2015-May-22 12:03N 29°56' E 123°06'811.9
2015-May-22 11:23N 29°48' E 123°02'1011.7
2015-May-22 10:33N 29°40' E 122°56'1412.0
2015-May-22 09:22N 29°27' E 122°50'1012.0
2015-May-22 08:32N 29°17' E 122°45'1512.1
2015-May-22 07:18N 29°04' E 122°38'912.6
2015-May-22 06:33N 28°56' E 122°33'38912.2
2015-May-20 22:32N 22°53' E 119°55'1312.9
2015-May-20 21:33N 22°43' E 120°03'1312.9
2015-May-20 20:33N 22°34' E 120°12'7 5.2
2015-May-20 19:15N 22°33' E 120°20'0 0.0
2015-May-20 17:33N 22°33' E 120°20'0 0.0
2015-May-20 16:29N 22°33' E 120°20'0 0.0
2015-May-20 15:17N 22°33' E 120°20'0 0.0
2015-May-20 14:22N 22°33' E 120°20'0 0.0
2015-May-20 13:21N 22°33' E 120°20'10 7.9
2015-May-20 12:07N 22°26' E 120°12'814.7
2015-May-20 11:33N 22°17' E 120°12'  
2015-May-14 04:20S 07°12' E 112°42'85 6.5
2015-May-13 15:12S 06°23' E 111°32'  

Dump ship's entire track history